createdAt,value
2018-06-02T00:00:31.589Z,46.97
2018-06-02T00:03:00.448Z,34.20
2018-06-02T00:05:29.288Z,45.27
2018-06-02T00:07:58.132Z,46.57
2018-06-02T00:10:27.045Z,36.37
2018-06-02T00:12:55.915Z,41.40
2018-06-02T00:15:24.773Z,37.27
2018-06-02T00:17:53.742Z,44.87
2018-06-02T00:20:22.658Z,36.07
2018-06-02T00:22:51.536Z,43.23
2018-06-02T00:25:20.438Z,47.70
2018-06-02T00:27:49.311Z,48.47
2018-06-02T00:30:18.492Z,45.63
2018-06-02T00:32:47.345Z,47.53
2018-06-02T00:35:16.192Z,35.67
2018-06-02T00:37:45.098Z,34.93
2018-06-02T00:40:13.977Z,38.83
2018-06-02T00:42:42.846Z,40.57
2018-06-02T00:45:11.731Z,38.60
2018-06-02T00:47:40.595Z,40.87
2018-06-02T00:50:09.462Z,36.93
2018-06-02T00:52:38.342Z,45.43
2018-06-02T00:55:08.127Z,32.63
2018-06-02T00:57:36.981Z,41.47
2018-06-02T01:00:05.853Z,38.93
2018-06-02T01:02:34.731Z,43.27
2018-06-02T01:05:03.613Z,38.53
2018-06-02T01:07:32.483Z,44.77
2018-06-02T01:10:01.335Z,40.57
2018-06-02T01:12:30.176Z,31.60
2018-06-02T01:14:59.070Z,34.30
2018-06-02T01:17:27.913Z,39.30
2018-06-02T01:19:56.789Z,36.70
2018-06-02T01:22:25.667Z,41.33
2018-06-02T01:24:54.509Z,38.47
2018-06-02T01:27:23.353Z,39.23
2018-06-02T01:29:52.304Z,44.87
2018-06-02T01:32:21.146Z,29.97
2018-06-02T01:34:49.998Z,43.07
2018-06-02T01:37:18.868Z,37.73
2018-06-02T01:39:47.707Z,34.77
2018-06-02T01:42:16.581Z,43.40
2018-06-02T01:44:46.347Z,38.13
2018-06-02T01:47:15.991Z,36.27
2018-06-02T01:49:45.477Z,40.80
2018-06-02T01:52:14.711Z,44.10
2018-06-02T01:54:43.603Z,39.43
2018-06-02T01:57:12.480Z,36.87
2018-06-02T01:59:41.352Z,42.57
2018-06-02T02:02:10.219Z,38.27
2018-06-02T02:04:39.096Z,36.13
2018-06-02T02:07:07.991Z,39.00
2018-06-02T02:09:36.834Z,36.10
2018-06-02T02:12:05.696Z,38.70
2018-06-02T02:14:34.537Z,33.50
2018-06-02T02:17:03.425Z,37.93
2018-06-02T02:19:32.337Z,38.27
2018-06-02T02:22:01.186Z,37.07
2018-06-02T02:24:30.076Z,38.57
2018-06-02T02:26:58.983Z,35.80
2018-06-02T02:29:27.827Z,35.13
2018-06-02T02:31:56.682Z,34.60
2018-06-02T02:34:25.551Z,38.30
2018-06-02T02:36:54.413Z,28.87
2018-06-02T02:39:23.329Z,37.70
2018-06-02T02:41:52.303Z,29.40
2018-06-02T02:44:21.159Z,31.70
2018-06-02T02:46:50.013Z,33.70
2018-06-02T02:49:18.890Z,33.93
2018-06-02T02:51:47.766Z,34.33
2018-06-02T02:54:16.618Z,39.33
2018-06-02T02:56:45.496Z,28.37
2018-06-02T02:59:14.380Z,31.90
2018-06-02T03:01:43.293Z,37.23
2018-06-02T03:04:12.160Z,36.20
2018-06-02T03:06:41.005Z,39.07
2018-06-02T03:09:09.862Z,37.23
2018-06-02T03:11:38.753Z,36.40
2018-06-02T03:14:07.616Z,36.40
2018-06-02T03:16:36.485Z,31.97
2018-06-02T03:19:05.353Z,33.27
2018-06-02T03:21:34.194Z,32.47
2018-06-02T03:24:03.100Z,30.60
2018-06-02T03:26:31.994Z,29.07
2018-06-02T03:29:00.838Z,29.77
2018-06-02T03:31:29.702Z,26.97
2018-06-02T03:33:58.559Z,23.77
2018-06-02T03:36:27.438Z,26.20
2018-06-02T03:38:56.338Z,26.47
2018-06-02T03:41:25.178Z,25.07
2018-06-02T03:43:54.034Z,28.73
2018-06-02T03:46:22.902Z,31.27
2018-06-02T03:48:51.734Z,32.00
2018-06-02T03:51:20.574Z,30.87
2018-06-02T03:53:49.493Z,28.13
2018-06-02T03:56:18.352Z,32.37
2018-06-02T03:58:47.202Z,29.13
2018-06-02T04:01:16.100Z,32.63
2018-06-02T04:03:44.978Z,29.70
2018-06-02T04:06:13.892Z,27.00
2018-06-02T04:08:42.778Z,32.53
2018-06-02T04:11:11.658Z,28.50
2018-06-02T04:13:40.519Z,26.23
2018-06-02T04:16:09.402Z,26.60
2018-06-02T04:18:38.278Z,30.37
2018-06-02T04:21:07.138Z,29.47
2018-06-02T04:23:36.025Z,26.53
2018-06-02T04:26:04.860Z,27.40
2018-06-02T04:28:33.715Z,27.20
2018-06-02T04:31:02.603Z,28.67
2018-06-02T04:33:31.474Z,27.40
2018-06-02T04:36:00.369Z,28.17
2018-06-02T04:38:29.238Z,25.77
2018-06-02T04:40:58.076Z,27.00
2018-06-02T04:43:26.925Z,24.27
2018-06-02T04:45:55.815Z,24.93
2018-06-02T04:48:24.659Z,23.47
2018-06-02T04:50:53.515Z,26.37
2018-06-02T04:53:22.409Z,23.83
2018-06-02T04:55:51.260Z,24.13
2018-06-02T04:58:20.138Z,24.67
2018-06-02T05:00:49.246Z,22.93
2018-06-02T05:03:18.087Z,24.17
2018-06-02T05:05:46.938Z,24.00
2018-06-02T05:08:15.815Z,23.03
2018-06-02T05:10:44.665Z,23.30
2018-06-02T05:13:14.229Z,22.30
2018-06-02T05:15:43.122Z,22.10
2018-06-02T05:18:12.001Z,21.43
2018-06-02T05:20:40.898Z,22.23
2018-06-02T05:23:09.757Z,22.10
2018-06-02T05:25:38.669Z,21.60
2018-06-02T05:28:07.542Z,20.27
2018-06-02T05:30:36.393Z,18.83
2018-06-02T05:33:05.269Z,17.90
2018-06-02T05:35:34.462Z,16.83
2018-06-02T05:38:03.380Z,16.43
2018-06-02T05:40:32.256Z,17.10
2018-06-02T05:43:01.154Z,17.10
2018-06-02T05:45:30.046Z,17.03
2018-06-02T05:47:58.890Z,17.97
2018-06-02T05:50:27.753Z,17.13
2018-06-02T05:52:56.596Z,16.43
2018-06-02T05:55:25.491Z,15.90
2018-06-02T05:57:54.480Z,14.40
2018-06-02T06:00:23.367Z,15.10
2018-06-02T06:02:52.249Z,14.67
2018-06-02T06:05:21.124Z,14.10
2018-06-02T06:07:50.010Z,14.57
2018-06-02T06:10:18.906Z,13.40
2018-06-02T06:12:47.747Z,14.70
2018-06-02T06:15:16.824Z,13.73
2018-06-02T06:17:45.702Z,12.93
2018-06-02T06:20:14.574Z,13.30
2018-06-02T06:22:43.467Z,12.20
2018-06-02T06:25:12.389Z,12.43
2018-06-02T06:27:41.233Z,12.03
2018-06-02T06:30:10.100Z,11.47
2018-06-02T06:32:38.971Z,12.40
2018-06-02T06:35:07.842Z,11.80
2018-06-02T06:37:36.706Z,11.27
2018-06-02T06:40:05.587Z,11.47
2018-06-02T06:42:34.426Z,11.60
2018-06-02T06:45:03.305Z,12.20
2018-06-02T06:47:32.198Z,11.20
2018-06-02T06:50:01.089Z,13.57
2018-06-02T06:52:29.947Z,12.10
2018-06-02T06:54:58.809Z,12.97
2018-06-02T06:57:27.655Z,13.17
2018-06-02T06:59:56.515Z,12.97
2018-06-02T07:02:25.407Z,12.37
2018-06-02T07:04:54.258Z,12.10
2018-06-02T07:07:23.147Z,11.13
2018-06-02T07:09:51.999Z,10.47
2018-06-02T07:12:20.858Z,10.10
2018-06-02T07:14:49.780Z,10.23
2018-06-02T07:17:18.625Z,9.60
2018-06-02T07:19:47.506Z,8.50
2018-06-02T07:22:16.425Z,9.07
2018-06-02T07:24:45.286Z,9.20
2018-06-02T07:27:14.103Z,9.03
2018-06-02T07:29:42.973Z,9.40
2018-06-02T07:32:11.827Z,9.37
2018-06-02T07:34:40.664Z,9.67
2018-06-02T07:37:09.563Z,8.97
2018-06-02T07:39:38.447Z,9.03
2018-06-02T07:42:07.307Z,8.83
2018-06-02T07:44:36.205Z,8.50
2018-06-02T07:47:05.057Z,8.73
2018-06-02T07:49:33.937Z,7.50
2018-06-02T07:52:02.781Z,7.90
2018-06-02T07:54:31.615Z,7.10
2018-06-02T07:57:00.499Z,7.40
2018-06-02T07:59:29.382Z,6.60
2018-06-02T08:01:58.221Z,6.90
2018-06-02T08:04:27.088Z,6.00
2018-06-02T08:06:55.990Z,6.73
2018-06-02T08:09:24.876Z,5.87
2018-06-02T08:11:53.793Z,6.63
2018-06-02T08:14:22.644Z,7.20
2018-06-02T08:16:51.546Z,7.47
2018-06-02T08:19:20.432Z,7.17
2018-06-02T08:21:49.292Z,7.40
2018-06-02T08:24:18.204Z,7.80
2018-06-02T08:26:47.670Z,6.90
2018-06-02T08:29:16.502Z,7.60
2018-06-02T08:31:45.389Z,7.50
2018-06-02T08:34:14.762Z,6.97
2018-06-02T08:36:43.614Z,7.77
2018-06-02T08:39:12.458Z,7.73
2018-06-02T08:41:41.298Z,8.03
2018-06-02T08:44:10.263Z,7.13
2018-06-02T08:46:39.141Z,7.70
2018-06-02T08:49:07.992Z,8.33
2018-06-02T08:51:37.087Z,8.03
2018-06-02T08:54:05.938Z,7.87
2018-06-02T08:56:34.793Z,7.90
2018-06-02T08:59:05.192Z,8.17
2018-06-02T09:01:34.044Z,7.80
2018-06-02T09:04:02.948Z,8.27
2018-06-02T09:06:31.782Z,7.77
2018-06-02T09:09:00.630Z,7.70
2018-06-02T09:11:29.482Z,7.10
2018-06-02T09:13:58.448Z,6.90
2018-06-02T09:16:28.280Z,6.97
2018-06-02T09:18:57.144Z,6.50
2018-06-02T09:21:26.654Z,6.67
2018-06-02T09:23:55.525Z,6.40
2018-06-02T09:26:24.794Z,6.87
2018-06-02T09:28:53.632Z,6.83
2018-06-02T09:31:22.512Z,6.93
2018-06-02T09:33:51.424Z,7.10
2018-06-02T09:36:20.519Z,7.50
2018-06-02T09:38:49.398Z,7.30
2018-06-02T09:41:18.278Z,6.80
2018-06-02T09:43:47.818Z,6.57
2018-06-02T09:46:16.665Z,7.13
2018-06-02T09:48:45.565Z,6.80
2018-06-02T09:51:14.450Z,6.87
2018-06-02T09:53:43.326Z,7.00
2018-06-02T09:56:12.205Z,6.40
2018-06-02T09:58:41.045Z,6.30
2018-06-02T10:01:10.521Z,7.23
2018-06-02T10:03:39.442Z,7.63
2018-06-02T10:06:08.823Z,7.50
2018-06-02T10:08:37.675Z,7.50
2018-06-02T10:11:06.572Z,6.87
2018-06-02T10:13:35.483Z,6.47
2018-06-02T10:16:04.339Z,6.70
2018-06-02T10:18:33.457Z,7.17
2018-06-02T10:21:02.323Z,6.80
2018-06-02T10:23:31.288Z,7.43
2018-06-02T10:26:00.126Z,7.20
2018-06-02T10:28:29.019Z,7.70
2018-06-02T10:30:57.867Z,7.23
2018-06-02T10:33:26.821Z,7.13
2018-06-02T10:35:55.730Z,6.97
2018-06-02T10:38:24.571Z,7.20
2018-06-02T10:40:53.449Z,6.93
2018-06-02T10:43:22.305Z,7.03
2018-06-02T10:45:51.199Z,7.17
2018-06-02T10:48:20.133Z,7.27
2018-06-02T10:50:48.967Z,7.40
2018-06-02T10:53:17.801Z,8.10
2018-06-02T10:55:46.649Z,8.00
2018-06-02T10:58:15.496Z,8.23
2018-06-02T11:00:44.413Z,8.30
2018-06-02T11:03:13.289Z,8.20
2018-06-02T11:05:42.188Z,8.53
2018-06-02T11:08:11.054Z,8.50
2018-06-02T11:10:39.903Z,8.33
2018-06-02T11:13:08.806Z,8.40
2018-06-02T11:15:37.660Z,8.27
2018-06-02T11:18:06.574Z,7.70
2018-06-02T11:20:35.473Z,7.93
2018-06-02T11:23:04.333Z,8.10
2018-06-02T11:25:33.161Z,7.70
2018-06-02T11:28:02.036Z,8.17
2018-06-02T11:30:30.901Z,8.50
2018-06-02T11:32:59.740Z,8.57
2018-06-02T11:35:28.628Z,7.27
2018-06-02T11:37:57.465Z,8.30
2018-06-02T11:40:26.433Z,8.37
2018-06-02T11:42:55.337Z,8.50
2018-06-02T11:45:24.171Z,8.87
2018-06-02T11:47:53.018Z,8.90
2018-06-02T11:50:21.925Z,8.63
2018-06-02T11:52:50.788Z,9.03
2018-06-02T11:55:19.683Z,9.47
2018-06-02T11:57:48.569Z,10.40
2018-06-02T12:00:17.498Z,9.60
2018-06-02T12:02:46.887Z,8.60
2018-06-02T12:05:15.752Z,8.73
2018-06-02T12:07:44.627Z,7.80
2018-06-02T12:10:13.488Z,8.70
2018-06-02T12:12:42.322Z,8.67
2018-06-02T12:15:11.211Z,8.30
2018-06-02T12:17:40.052Z,8.30
2018-06-02T12:20:08.904Z,8.47
2018-06-02T12:22:37.783Z,7.93
2018-06-02T12:25:06.636Z,8.90
2018-06-02T12:27:35.496Z,8.43
2018-06-02T12:30:04.375Z,8.17
2018-06-02T12:32:33.244Z,9.03
2018-06-02T12:35:02.097Z,8.50
2018-06-02T12:37:30.976Z,8.47
2018-06-02T12:39:59.859Z,9.60
2018-06-02T12:42:28.767Z,9.17
2018-06-02T12:44:57.645Z,8.73
2018-06-02T12:47:26.510Z,9.30
2018-06-02T12:49:55.387Z,9.77
2018-06-02T12:52:24.289Z,9.83
2018-06-02T12:54:53.176Z,9.77
2018-06-02T12:57:22.017Z,9.83
2018-06-02T12:59:50.885Z,9.63
2018-06-02T13:02:19.736Z,10.10
2018-06-02T13:04:48.609Z,9.77
2018-06-02T13:07:17.543Z,9.83
2018-06-02T13:09:46.422Z,11.23
2018-06-02T13:12:15.387Z,10.13
2018-06-02T13:14:44.271Z,10.70
2018-06-02T13:17:13.188Z,11.47
2018-06-02T13:19:42.031Z,11.30
2018-06-02T13:22:10.907Z,10.60
2018-06-02T13:24:39.807Z,10.30
2018-06-02T13:27:08.648Z,9.60
2018-06-02T13:29:37.541Z,9.83
2018-06-02T13:32:06.387Z,9.90
2018-06-02T13:34:35.264Z,10.17
2018-06-02T13:37:04.187Z,9.63
2018-06-02T13:39:33.035Z,10.20
2018-06-02T13:42:01.901Z,10.87
2018-06-02T13:44:30.812Z,10.33
2018-06-02T13:46:59.637Z,9.93
2018-06-02T13:49:28.521Z,9.93
2018-06-02T13:51:57.386Z,8.23
2018-06-02T13:54:26.257Z,9.30
2018-06-02T13:56:55.114Z,8.57
2018-06-02T13:59:23.999Z,7.83
2018-06-02T14:01:52.834Z,8.07
2018-06-02T14:04:21.666Z,8.67
2018-06-02T14:06:50.565Z,7.77
2018-06-02T14:09:19.404Z,7.93
2018-06-02T14:11:48.283Z,12.10
2018-06-02T14:14:17.122Z,9.47
2018-06-02T14:16:46.507Z,8.40
2018-06-02T14:19:15.403Z,8.80
2018-06-02T14:21:44.282Z,7.40
2018-06-02T14:24:13.127Z,7.70
2018-06-02T14:26:42.002Z,7.90
2018-06-02T14:29:10.886Z,7.53
2018-06-02T14:31:39.725Z,6.17
2018-06-02T14:34:08.598Z,7.53
2018-06-02T14:36:37.488Z,6.60
2018-06-02T14:39:06.370Z,6.40
2018-06-02T14:41:35.250Z,7.50
2018-06-02T14:44:04.126Z,8.63
2018-06-02T14:46:32.991Z,8.37
2018-06-02T14:49:02.113Z,8.50
2018-06-02T14:51:30.946Z,8.00
2018-06-02T14:53:59.823Z,8.60
2018-06-02T14:56:28.684Z,9.90
2018-06-02T14:58:57.544Z,8.53
2018-06-02T15:01:26.398Z,10.60
2018-06-02T15:03:55.339Z,10.07
2018-06-02T15:06:24.210Z,11.00
2018-06-02T15:08:53.050Z,9.60
2018-06-02T15:11:21.903Z,9.10
2018-06-02T15:13:50.763Z,9.53
2018-06-02T15:16:19.664Z,9.90
2018-06-02T15:18:48.554Z,9.97
2018-06-02T15:21:17.408Z,10.07
2018-06-02T15:23:46.274Z,8.97
2018-06-02T15:26:16.009Z,10.23
2018-06-02T15:28:44.886Z,9.97
2018-06-02T15:31:13.756Z,8.90
2018-06-02T15:33:42.664Z,9.57
2018-06-02T15:36:11.516Z,10.07
2018-06-02T15:38:40.402Z,13.10
2018-06-02T15:41:09.289Z,12.73
2018-06-02T15:43:38.131Z,9.03
2018-06-02T15:46:07.017Z,9.13
2018-06-02T15:48:35.955Z,8.87
2018-06-02T15:51:04.753Z,8.70
2018-06-02T15:53:34.456Z,8.70
2018-06-02T15:56:03.332Z,8.67
2018-06-02T15:58:32.235Z,9.27
2018-06-02T16:01:01.205Z,8.90
2018-06-02T16:03:30.242Z,9.17
2018-06-02T16:05:59.089Z,8.87
2018-06-02T16:08:27.934Z,9.00
2018-06-02T16:10:56.795Z,9.77
2018-06-02T16:13:26.445Z,9.13
2018-06-02T16:15:55.279Z,8.57
2018-06-02T16:18:24.135Z,9.10
2018-06-02T16:20:52.999Z,9.20
2018-06-02T16:23:22.051Z,9.53
2018-06-02T16:25:50.950Z,9.37
2018-06-02T16:28:19.843Z,10.07
2018-06-02T16:30:48.761Z,11.00
2018-06-02T16:33:17.748Z,11.23
2018-06-02T16:35:46.620Z,10.73
2018-06-02T16:38:15.515Z,11.60
2018-06-02T16:40:44.383Z,11.53
2018-06-02T16:43:13.267Z,11.43
2018-06-02T16:45:42.115Z,10.97
2018-06-02T16:48:10.955Z,11.17
2018-06-02T16:50:39.859Z,11.67
2018-06-02T16:53:08.725Z,11.73
2018-06-02T16:55:38.353Z,13.50
2018-06-02T16:58:07.225Z,13.23
2018-06-02T17:00:36.063Z,13.97
2018-06-02T17:03:04.935Z,14.23
2018-06-02T17:05:33.789Z,15.07
2018-06-02T17:08:02.688Z,14.10
2018-06-02T17:10:32.148Z,14.23
2018-06-02T17:13:01.102Z,14.90
2018-06-02T17:15:29.957Z,14.77
2018-06-02T17:17:58.893Z,14.33
2018-06-02T17:20:28.084Z,13.63
2018-06-02T17:22:56.936Z,13.17
2018-06-02T17:25:25.814Z,14.00
2018-06-02T17:27:54.681Z,13.40
2018-06-02T17:30:23.599Z,13.93
2018-06-02T17:32:52.444Z,13.93
2018-06-02T17:35:21.326Z,13.77
2018-06-02T17:37:50.200Z,12.37
2018-06-02T17:40:19.202Z,12.57
2018-06-02T17:42:48.071Z,12.53
2018-06-02T17:45:18.149Z,12.60
2018-06-02T17:47:47.048Z,12.43
2018-06-02T17:50:15.937Z,12.27
2018-06-02T17:52:44.809Z,12.90
2018-06-02T17:55:13.915Z,14.17
2018-06-02T17:57:43.806Z,14.43
2018-06-02T18:00:12.709Z,14.47
2018-06-02T18:02:42.686Z,15.30
2018-06-02T18:05:12.008Z,15.97
2018-06-02T18:07:40.874Z,16.50
2018-06-02T18:10:09.717Z,18.27
2018-06-02T18:12:38.602Z,17.37
2018-06-02T18:15:07.622Z,20.40
2018-06-02T18:17:36.642Z,19.90
2018-06-02T18:20:05.584Z,22.43
2018-06-02T18:22:34.726Z,24.87
2018-06-02T18:25:03.892Z,20.43
2018-06-02T18:27:32.744Z,25.10
2018-06-02T18:30:01.652Z,26.70
2018-06-02T18:32:30.558Z,27.63
2018-06-02T18:34:59.409Z,27.67
2018-06-02T18:37:28.318Z,28.37
2018-06-02T18:39:57.434Z,26.07
2018-06-02T18:42:26.280Z,27.03
2018-06-02T18:44:56.230Z,29.00
2018-06-02T18:50:18.922Z,26.87
2018-06-02T18:52:50.448Z,27.63
2018-06-02T18:55:20.356Z,30.23
2018-06-02T18:57:49.454Z,29.07
2018-06-02T19:00:18.410Z,29.67
2018-06-02T19:02:47.316Z,29.60
2018-06-02T19:05:16.188Z,27.33
2018-06-02T19:07:45.046Z,31.27
2018-06-02T19:10:13.944Z,28.37
2018-06-02T19:12:42.790Z,27.37
2018-06-02T19:15:11.927Z,31.63
2018-06-02T19:17:40.811Z,25.93
2018-06-02T19:20:09.705Z,29.33
2018-06-02T19:22:38.634Z,27.90
2018-06-02T19:25:07.562Z,27.47
2018-06-02T19:27:36.444Z,27.50
2018-06-02T19:30:05.559Z,31.53
2018-06-02T19:32:34.427Z,29.67
2018-06-02T19:35:03.423Z,25.17
2018-06-02T19:37:32.285Z,26.63
2018-06-02T19:40:01.399Z,26.37
2018-06-02T19:42:30.273Z,27.50
2018-06-02T19:44:59.121Z,27.00
2018-06-02T19:47:27.969Z,27.43
2018-06-02T19:49:56.843Z,29.90
2018-06-02T19:52:25.737Z,26.53
2018-06-02T19:54:55.341Z,28.23
2018-06-02T19:57:24.278Z,27.57
2018-06-02T19:59:53.157Z,28.93
2018-06-02T20:02:22.045Z,27.47
2018-06-02T20:04:50.895Z,26.03
2018-06-02T20:07:19.769Z,26.80
2018-06-02T20:09:48.667Z,27.73
2018-06-02T20:12:18.315Z,25.93
2018-06-02T20:14:47.204Z,24.37
2018-06-02T20:17:16.079Z,25.03
2018-06-02T20:19:44.944Z,26.10
2018-06-02T20:22:13.791Z,26.17
2018-06-02T20:24:42.670Z,23.63
2018-06-02T20:27:11.518Z,23.83
2018-06-02T20:29:40.825Z,25.00
2018-06-02T20:32:09.723Z,22.13
2018-06-02T20:34:38.628Z,21.40
2018-06-02T20:37:07.466Z,23.00
2018-06-02T20:39:36.312Z,20.87
2018-06-02T20:42:05.161Z,26.30
2018-06-02T20:44:34.040Z,26.70
2018-06-02T20:47:02.930Z,23.50
2018-06-02T20:49:31.791Z,24.70
2018-06-02T20:52:00.666Z,22.17
2018-06-02T20:54:29.546Z,24.00
2018-06-02T20:56:58.416Z,21.33
2018-06-02T20:59:27.255Z,25.60
2018-06-02T21:01:56.116Z,25.97
2018-06-02T21:04:25.010Z,25.13
2018-06-02T21:06:54.333Z,26.10
2018-06-02T21:09:23.394Z,26.70
2018-06-02T21:11:52.246Z,26.27
2018-06-02T21:14:21.110Z,22.30
2018-06-02T21:16:49.997Z,24.47
2018-06-02T21:19:18.873Z,24.67
2018-06-02T21:21:47.754Z,22.13
2018-06-02T21:24:16.701Z,22.93
2018-06-02T21:26:45.578Z,22.17
2018-06-02T21:29:14.915Z,23.67
2018-06-02T21:31:44.390Z,21.07
2018-06-02T21:34:13.804Z,22.27
2018-06-02T21:36:42.737Z,22.57
2018-06-02T21:39:11.793Z,20.03
2018-06-02T21:41:40.959Z,23.17
2018-06-02T21:44:09.795Z,21.90
2018-06-02T21:46:38.669Z,21.50
2018-06-02T21:49:07.519Z,21.23
2018-06-02T21:51:36.442Z,29.97
2018-06-02T21:54:05.341Z,25.77
2018-06-02T21:56:35.167Z,29.13
2018-06-02T21:59:04.095Z,31.63
2018-06-02T22:01:32.955Z,30.53
2018-06-02T22:04:01.962Z,27.77
2018-06-02T22:06:30.847Z,24.07
2018-06-02T22:08:59.729Z,25.93
2018-06-02T22:11:28.629Z,25.37
2018-06-02T22:13:57.498Z,22.13
2018-06-02T22:16:26.414Z,23.47
2018-06-02T22:18:55.261Z,27.63
2018-06-02T22:21:24.140Z,28.63
2018-06-02T22:23:53.031Z,26.77
2018-06-02T22:26:22.799Z,23.00
2018-06-02T22:28:51.688Z,24.23
2018-06-02T22:31:20.549Z,19.43
2018-06-02T22:33:49.435Z,20.57
2018-06-02T22:36:18.362Z,21.93
2018-06-02T22:38:47.217Z,19.23
2018-06-02T22:41:16.070Z,21.47
2018-06-02T22:43:44.969Z,21.77
2018-06-02T22:46:13.853Z,19.97
2018-06-02T22:48:42.692Z,19.73
2018-06-02T22:51:11.573Z,21.87
2018-06-02T22:53:40.461Z,19.13
2018-06-02T22:56:09.325Z,22.13
2018-06-02T22:58:38.207Z,20.13
2018-06-02T23:01:07.090Z,23.70
2018-06-02T23:03:35.966Z,22.10
2018-06-02T23:06:04.863Z,23.50
2018-06-02T23:08:37.573Z,20.07
2018-06-02T23:11:06.473Z,19.87
2018-06-02T23:13:35.358Z,23.70
2018-06-02T23:16:04.226Z,25.40
2018-06-02T23:18:33.116Z,23.47
2018-06-02T23:21:01.971Z,19.83
2018-06-02T23:23:30.810Z,20.70
2018-06-02T23:25:59.706Z,25.20
2018-06-02T23:28:59.686Z,22.23
2018-06-02T23:31:27.913Z,19.87
2018-06-02T23:33:56.107Z,23.70
2018-06-02T23:36:24.401Z,24.27
2018-06-02T23:38:52.737Z,24.50
2018-06-02T23:41:21.835Z,20.00
2018-06-02T23:43:50.006Z,21.50
2018-06-02T23:46:18.195Z,18.20
2018-06-02T23:48:46.321Z,22.83
2018-06-02T23:51:14.520Z,25.10
2018-06-02T23:53:43.067Z,24.00
2018-06-02T23:56:11.249Z,21.97
2018-06-02T23:58:39.446Z,19.57
